sensor_id;sensor_type;location;lat;lon;timestamp;P1;durP1;ratioP1;P2;durP2;ratioP2
19482;SDS011;9882;51.166;6.992;2022-11-15T00:00:57;25.33;;;7.13;;
19482;SDS011;9882;51.166;6.992;2022-11-15T00:03:45;18.25;;;6.50;;
19482;SDS011;9882;51.166;6.992;2022-11-15T00:06:36;13.38;;;5.55;;
19482;SDS011;9882;51.166;6.992;2022-11-15T00:09:23;16.13;;;5.90;;
19482;SDS011;9882;51.166;6.992;2022-11-15T00:12:10;17.77;;;6.80;;
19482;SDS011;9882;51.166;6.992;2022-11-15T00:14:57;16.33;;;5.50;;
19482;SDS011;9882;51.166;6.992;2022-11-15T00:17:43;17.55;;;6.53;;
19482;SDS011;9882;51.166;6.992;2022-11-15T00:20:33;17.98;;;6.60;;
19482;SDS011;9882;51.166;6.992;2022-11-15T00:23:20;18.58;;;6.43;;
19482;SDS011;9882;51.166;6.992;2022-11-15T00:26:08;16.10;;;5.78;;
19482;SDS011;9882;51.166;6.992;2022-11-15T00:28:57;13.93;;;5.28;;
19482;SDS011;9882;51.166;6.992;2022-11-15T00:31:44;18.25;;;6.13;;
19482;SDS011;9882;51.166;6.992;2022-11-15T00:34:32;15.45;;;5.68;;
19482;SDS011;9882;51.166;6.992;2022-11-15T00:37:20;16.67;;;6.70;;
19482;SDS011;9882;51.166;6.992;2022-11-15T00:40:08;14.98;;;5.88;;
19482;SDS011;9882;51.166;6.992;2022-11-15T00:42:58;13.57;;;5.38;;
19482;SDS011;9882;51.166;6.992;2022-11-15T00:45:51;17.33;;;5.93;;
19482;SDS011;9882;51.166;6.992;2022-11-15T00:52:07;16.75;;;6.72;;
19482;SDS011;9882;51.166;6.992;2022-11-15T00:54:57;16.67;;;6.22;;
19482;SDS011;9882;51.166;6.992;2022-11-15T00:57:48;17.10;;;6.15;;
19482;SDS011;9882;51.166;6.992;2022-11-15T01:00:36;11.10;;;5.57;;
19482;SDS011;9882;51.166;6.992;2022-11-15T01:03:31;14.60;;;5.90;;
19482;SDS011;9882;51.166;6.992;2022-11-15T01:06:19;18.92;;;6.72;;
19482;SDS011;9882;51.166;6.992;2022-11-15T01:09:13;15.73;;;6.28;;
19482;SDS011;9882;51.166;6.992;2022-11-15T01:12:01;17.45;;;5.95;;
19482;SDS011;9882;51.166;6.992;2022-11-15T01:22:20;14.40;;;6.25;;
19482;SDS011;9882;51.166;6.992;2022-11-15T01:25:19;15.30;;;6.13;;
19482;SDS011;9882;51.166;6.992;2022-11-15T01:28:09;13.23;;;5.38;;
19482;SDS011;9882;51.166;6.992;2022-11-15T01:30:59;13.88;;;5.93;;
19482;SDS011;9882;51.166;6.992;2022-11-15T01:37:44;19.55;;;7.00;;
19482;SDS011;9882;51.166;6.992;2022-11-15T01:40:36;14.95;;;6.53;;
19482;SDS011;9882;51.166;6.992;2022-11-15T01:47:12;13.20;;;5.68;;
19482;SDS011;9882;51.166;6.992;2022-11-15T01:50:03;17.75;;;6.50;;
19482;SDS011;9882;51.166;6.992;2022-11-15T01:52:52;14.60;;;6.20;;
19482;SDS011;9882;51.166;6.992;2022-11-15T01:55:40;11.65;;;5.63;;
19482;SDS011;9882;51.166;6.992;2022-11-15T01:58:28;17.50;;;6.30;;
19482;SDS011;9882;51.166;6.992;2022-11-15T02:01:15;18.63;;;6.38;;
19482;SDS011;9882;51.166;6.992;2022-11-15T02:04:05;17.45;;;5.72;;
19482;SDS011;9882;51.166;6.992;2022-11-15T02:07:06;12.88;;;5.70;;
19482;SDS011;9882;51.166;6.992;2022-11-15T02:17:11;10.85;;;5.32;;
19482;SDS011;9882;51.166;6.992;2022-11-15T02:30:46;20.67;;;6.97;;
19482;SDS011;9882;51.166;6.992;2022-11-15T02:33:41;14.68;;;5.68;;
19482;SDS011;9882;51.166;6.992;2022-11-15T02:36:40;13.82;;;6.05;;
19482;SDS011;9882;51.166;6.992;2022-11-15T02:39:38;16.98;;;5.80;;
19482;SDS011;9882;51.166;6.992;2022-11-15T02:42:31;16.42;;;5.85;;
19482;SDS011;9882;51.166;6.992;2022-11-15T02:45:56;12.95;;;5.35;;
19482;SDS011;9882;51.166;6.992;2022-11-15T02:48:54;19.83;;;7.25;;
19482;SDS011;9882;51.166;6.992;2022-11-15T02:51:47;14.55;;;5.97;;
19482;SDS011;9882;51.166;6.992;2022-11-15T02:58:15;14.50;;;6.38;;
19482;SDS011;9882;51.166;6.992;2022-11-15T03:01:15;16.02;;;6.28;;
19482;SDS011;9882;51.166;6.992;2022-11-15T03:04:15;17.38;;;6.47;;
19482;SDS011;9882;51.166;6.992;2022-11-15T03:07:14;18.65;;;6.53;;
19482;SDS011;9882;51.166;6.992;2022-11-15T03:10:51;14.55;;;5.95;;
19482;SDS011;9882;51.166;6.992;2022-11-15T03:14:35;18.00;;;6.20;;
19482;SDS011;9882;51.166;6.992;2022-11-15T03:17:27;13.73;;;5.57;;
19482;SDS011;9882;51.166;6.992;2022-11-15T03:20:35;16.20;;;5.72;;
19482;SDS011;9882;51.166;6.992;2022-11-15T03:24:10;17.08;;;6.72;;
19482;SDS011;9882;51.166;6.992;2022-11-15T03:27:19;19.20;;;6.80;;
19482;SDS011;9882;51.166;6.992;2022-11-15T03:30:14;14.35;;;6.18;;
19482;SDS011;9882;51.166;6.992;2022-11-15T03:33:09;15.50;;;5.95;;
19482;SDS011;9882;51.166;6.992;2022-11-15T03:36:25;14.23;;;5.43;;
19482;SDS011;9882;51.166;6.992;2022-11-15T03:39:29;11.93;;;5.25;;
19482;SDS011;9882;51.166;6.992;2022-11-15T03:42:18;13.35;;;5.93;;
19482;SDS011;9882;51.166;6.992;2022-11-15T03:45:10;15.88;;;5.70;;
19482;SDS011;9882;51.166;6.992;2022-11-15T03:51:53;13.68;;;5.43;;
19482;SDS011;9882;51.166;6.992;2022-11-15T03:54:49;15.75;;;5.82;;
19482;SDS011;9882;51.166;6.992;2022-11-15T03:57:38;13.13;;;5.35;;
19482;SDS011;9882;51.166;6.992;2022-11-15T04:08:06;18.83;;;5.05;;
19482;SDS011;9882;51.166;6.992;2022-11-15T04:10:53;13.50;;;5.70;;
19482;SDS011;9882;51.166;6.992;2022-11-15T04:21:53;12.10;;;5.43;;
19482;SDS011;9882;51.166;6.992;2022-11-15T04:24:58;13.13;;;5.03;;
19482;SDS011;9882;51.166;6.992;2022-11-15T04:34:36;10.60;;;5.13;;
19482;SDS011;9882;51.166;6.992;2022-11-15T04:37:24;12.10;;;4.93;;
19482;SDS011;9882;51.166;6.992;2022-11-15T04:47:41;17.45;;;6.35;;
19482;SDS011;9882;51.166;6.992;2022-11-15T04:50:33;12.68;;;5.75;;
19482;SDS011;9882;51.166;6.992;2022-11-15T04:57:40;16.65;;;6.38;;
19482;SDS011;9882;51.166;6.992;2022-11-15T05:00:51;14.63;;;5.75;;
19482;SDS011;9882;51.166;6.992;2022-11-15T05:03:41;12.65;;;5.43;;
19482;SDS011;9882;51.166;6.992;2022-11-15T05:06:47;13.85;;;5.88;;
19482;SDS011;9882;51.166;6.992;2022-11-15T05:13:49;13.63;;;5.35;;
19482;SDS011;9882;51.166;6.992;2022-11-15T05:16:36;13.32;;;5.35;;
19482;SDS011;9882;51.166;6.992;2022-11-15T05:19:25;13.52;;;4.90;;
19482;SDS011;9882;51.166;6.992;2022-11-15T05:29:41;17.50;;;5.55;;
19482;SDS011;9882;51.166;6.992;2022-11-15T05:32:29;12.45;;;5.60;;
19482;SDS011;9882;51.166;6.992;2022-11-15T05:35:28;14.00;;;5.20;;
19482;SDS011;9882;51.166;6.992;2022-11-15T05:41:30;13.65;;;5.72;;
19482;SDS011;9882;51.166;6.992;2022-11-15T05:44:35;13.82;;;5.75;;
19482;SDS011;9882;51.166;6.992;2022-11-15T05:47:40;10.95;;;4.93;;
19482;SDS011;9882;51.166;6.992;2022-11-15T05:57:44;12.07;;;5.05;;
19482;SDS011;9882;51.166;6.992;2022-11-15T06:00:31;11.32;;;4.60;;
19482;SDS011;9882;51.166;6.992;2022-11-15T06:03:19;10.48;;;4.25;;
19482;SDS011;9882;51.166;6.992;2022-11-15T06:06:06;9.15;;;4.40;;
19482;SDS011;9882;51.166;6.992;2022-11-15T06:08:57;8.43;;;3.92;;
19482;SDS011;9882;51.166;6.992;2022-11-15T06:11:44;13.90;;;5.07;;
19482;SDS011;9882;51.166;6.992;2022-11-15T06:14:31;8.05;;;4.22;;
19482;SDS011;9882;51.166;6.992;2022-11-15T06:17:18;10.18;;;4.32;;
19482;SDS011;9882;51.166;6.992;2022-11-15T06:20:05;9.88;;;4.20;;
19482;SDS011;9882;51.166;6.992;2022-11-15T06:22:56;13.40;;;4.35;;
19482;SDS011;9882;51.166;6.992;2022-11-15T06:25:45;8.32;;;4.25;;
19482;SDS011;9882;51.166;6.992;2022-11-15T06:28:32;8.48;;;4.05;;
19482;SDS011;9882;51.166;6.992;2022-11-15T06:31:19;7.82;;;3.42;;
19482;SDS011;9882;51.166;6.992;2022-11-15T06:34:06;8.00;;;3.90;;
19482;SDS011;9882;51.166;6.992;2022-11-15T06:36:53;10.63;;;3.60;;
19482;SDS011;9882;51.166;6.992;2022-11-15T06:39:41;8.30;;;3.80;;
19482;SDS011;9882;51.166;6.992;2022-11-15T06:42:29;8.70;;;3.97;;
19482;SDS011;9882;51.166;6.992;2022-11-15T06:45:16;10.05;;;3.67;;
19482;SDS011;9882;51.166;6.992;2022-11-15T06:48:04;9.55;;;3.80;;
19482;SDS011;9882;51.166;6.992;2022-11-15T06:50:52;7.68;;;3.53;;
19482;SDS011;9882;51.166;6.992;2022-11-15T06:53:39;8.85;;;3.63;;
19482;SDS011;9882;51.166;6.992;2022-11-15T06:56:26;12.07;;;4.10;;
19482;SDS011;9882;51.166;6.992;2022-11-15T06:59:14;8.32;;;3.50;;
19482;SDS011;9882;51.166;6.992;2022-11-15T07:02:01;7.18;;;3.60;;
19482;SDS011;9882;51.166;6.992;2022-11-15T07:04:55;8.43;;;3.55;;
19482;SDS011;9882;51.166;6.992;2022-11-15T07:07:42;9.02;;;3.80;;
19482;SDS011;9882;51.166;6.992;2022-11-15T07:10:30;8.02;;;3.80;;
19482;SDS011;9882;51.166;6.992;2022-11-15T07:13:17;9.35;;;3.97;;
19482;SDS011;9882;51.166;6.992;2022-11-15T07:16:06;8.75;;;3.58;;
19482;SDS011;9882;51.166;6.992;2022-11-15T07:18:55;7.63;;;3.50;;
19482;SDS011;9882;51.166;6.992;2022-11-15T07:21:42;6.93;;;3.00;;
19482;SDS011;9882;51.166;6.992;2022-11-15T07:24:29;6.93;;;3.17;;
19482;SDS011;9882;51.166;6.992;2022-11-15T07:27:16;6.80;;;3.35;;
19482;SDS011;9882;51.166;6.992;2022-11-15T07:30:04;5.80;;;3.10;;
19482;SDS011;9882;51.166;6.992;2022-11-15T07:32:54;11.85;;;3.65;;
19482;SDS011;9882;51.166;6.992;2022-11-15T07:35:41;9.30;;;3.85;;
19482;SDS011;9882;51.166;6.992;2022-11-15T07:38:31;7.05;;;3.47;;
19482;SDS011;9882;51.166;6.992;2022-11-15T07:41:21;5.68;;;3.10;;
19482;SDS011;9882;51.166;6.992;2022-11-15T07:44:08;6.03;;;3.00;;
19482;SDS011;9882;51.166;6.992;2022-11-15T07:46:55;4.53;;;2.85;;
19482;SDS011;9882;51.166;6.992;2022-11-15T07:49:44;5.80;;;2.92;;
19482;SDS011;9882;51.166;6.992;2022-11-15T07:52:32;7.07;;;3.25;;
19482;SDS011;9882;51.166;6.992;2022-11-15T07:55:19;5.22;;;3.05;;
19482;SDS011;9882;51.166;6.992;2022-11-15T07:57:59;5.85;;;3.10;;
19482;SDS011;9882;51.166;6.992;2022-11-15T08:00:48;6.25;;;3.30;;
19482;SDS011;9882;51.166;6.992;2022-11-15T08:03:36;9.02;;;3.42;;
19482;SDS011;9882;51.166;6.992;2022-11-15T08:06:27;5.40;;;2.90;;
19482;SDS011;9882;51.166;6.992;2022-11-15T08:09:17;9.10;;;3.47;;
19482;SDS011;9882;51.166;6.992;2022-11-15T08:12:04;6.47;;;2.90;;
19482;SDS011;9882;51.166;6.992;2022-11-15T08:14:52;6.45;;;3.10;;
19482;SDS011;9882;51.166;6.992;2022-11-15T08:17:40;6.57;;;3.03;;
19482;SDS011;9882;51.166;6.992;2022-11-15T08:20:27;4.07;;;2.60;;
19482;SDS011;9882;51.166;6.992;2022-11-15T08:23:17;5.88;;;2.70;;
19482;SDS011;9882;51.166;6.992;2022-11-15T08:26:06;5.45;;;3.13;;
19482;SDS011;9882;51.166;6.992;2022-11-15T08:28:53;6.18;;;3.13;;
19482;SDS011;9882;51.166;6.992;2022-11-15T08:31:41;6.88;;;2.88;;
19482;SDS011;9882;51.166;6.992;2022-11-15T08:34:29;5.60;;;3.10;;
19482;SDS011;9882;51.166;6.992;2022-11-15T08:37:16;3.65;;;2.67;;
19482;SDS011;9882;51.166;6.992;2022-11-15T08:40:06;5.63;;;2.97;;
19482;SDS011;9882;51.166;6.992;2022-11-15T08:42:55;4.95;;;2.92;;
19482;SDS011;9882;51.166;6.992;2022-11-15T08:45:44;4.88;;;2.70;;
19482;SDS011;9882;51.166;6.992;2022-11-15T08:48:31;7.95;;;2.50;;
19482;SDS011;9882;51.166;6.992;2022-11-15T08:51:19;5.18;;;2.92;;
19482;SDS011;9882;51.166;6.992;2022-11-15T08:54:06;4.53;;;2.45;;
19482;SDS011;9882;51.166;6.992;2022-11-15T08:56:55;3.13;;;2.53;;
19482;SDS011;9882;51.166;6.992;2022-11-15T08:59:43;5.25;;;2.53;;
19482;SDS011;9882;51.166;6.992;2022-11-15T09:02:30;7.90;;;2.65;;
19482;SDS011;9882;51.166;6.992;2022-11-15T09:05:18;5.07;;;2.50;;
19482;SDS011;9882;51.166;6.992;2022-11-15T09:08:06;6.75;;;2.67;;
19482;SDS011;9882;51.166;6.992;2022-11-15T09:11:09;7.75;;;2.88;;
19482;SDS011;9882;51.166;6.992;2022-11-15T09:13:59;5.18;;;2.70;;
19482;SDS011;9882;51.166;6.992;2022-11-15T09:16:47;6.18;;;2.42;;
19482;SDS011;9882;51.166;6.992;2022-11-15T09:19:35;5.45;;;2.72;;
19482;SDS011;9882;51.166;6.992;2022-11-15T09:22:24;5.57;;;2.47;;
19482;SDS011;9882;51.166;6.992;2022-11-15T09:25:11;8.60;;;2.55;;
19482;SDS011;9882;51.166;6.992;2022-11-15T09:27:59;3.50;;;2.65;;
19482;SDS011;9882;51.166;6.992;2022-11-15T09:30:48;3.78;;;2.13;;
19482;SDS011;9882;51.166;6.992;2022-11-15T09:33:36;6.93;;;3.00;;
19482;SDS011;9882;51.166;6.992;2022-11-15T09:36:24;3.60;;;2.38;;
19482;SDS011;9882;51.166;6.992;2022-11-15T09:39:13;3.30;;;2.25;;
19482;SDS011;9882;51.166;6.992;2022-11-15T09:42:08;4.85;;;2.42;;
19482;SDS011;9882;51.166;6.992;2022-11-15T09:45:18;10.30;;;2.47;;
19482;SDS011;9882;51.166;6.992;2022-11-15T09:48:23;5.50;;;2.28;;
19482;SDS011;9882;51.166;6.992;2022-11-15T09:51:24;5.80;;;2.30;;
19482;SDS011;9882;51.166;6.992;2022-11-15T09:54:04;3.08;;;2.10;;
19482;SDS011;9882;51.166;6.992;2022-11-15T09:57:03;6.13;;;2.45;;
19482;SDS011;9882;51.166;6.992;2022-11-15T09:59:40;2.40;;;2.20;;
19482;SDS011;9882;51.166;6.992;2022-11-15T10:02:33;3.97;;;1.95;;
19482;SDS011;9882;51.166;6.992;2022-11-15T10:05:14;3.13;;;2.13;;
19482;SDS011;9882;51.166;6.992;2022-11-15T10:07:48;3.13;;;2.10;;
19482;SDS011;9882;51.166;6.992;2022-11-15T10:10:25;4.32;;;2.30;;
19482;SDS011;9882;51.166;6.992;2022-11-15T10:12:57;3.53;;;1.90;;
19482;SDS011;9882;51.166;6.992;2022-11-15T10:15:35;3.30;;;2.10;;
19482;SDS011;9882;51.166;6.992;2022-11-15T10:18:08;2.67;;;1.98;;
19482;SDS011;9882;51.166;6.992;2022-11-15T10:20:49;4.18;;;2.05;;
19482;SDS011;9882;51.166;6.992;2022-11-15T10:23:22;6.40;;;2.22;;
19482;SDS011;9882;51.166;6.992;2022-11-15T10:25:59;4.40;;;2.10;;
19482;SDS011;9882;51.166;6.992;2022-11-15T10:28:43;3.63;;;2.05;;
19482;SDS011;9882;51.166;6.992;2022-11-15T10:31:22;4.55;;;2.35;;
19482;SDS011;9882;51.166;6.992;2022-11-15T10:33:56;4.47;;;2.10;;
19482;SDS011;9882;51.166;6.992;2022-11-15T10:36:45;3.30;;;2.00;;
19482;SDS011;9882;51.166;6.992;2022-11-15T10:39:18;5.70;;;2.28;;
19482;SDS011;9882;51.166;6.992;2022-11-15T10:41:48;2.10;;;1.88;;
19482;SDS011;9882;51.166;6.992;2022-11-15T10:44:21;5.30;;;1.90;;
19482;SDS011;9882;51.166;6.992;2022-11-15T10:50:00;5.85;;;1.63;;
19482;SDS011;9882;51.166;6.992;2022-11-15T10:55:22;4.47;;;1.88;;
19482;SDS011;9882;51.166;6.992;2022-11-15T10:58:03;4.10;;;2.20;;
19482;SDS011;9882;51.166;6.992;2022-11-15T11:00:42;2.58;;;2.03;;
19482;SDS011;9882;51.166;6.992;2022-11-15T11:03:24;2.83;;;1.92;;
19482;SDS011;9882;51.166;6.992;2022-11-15T11:06:03;6.05;;;2.53;;
19482;SDS011;9882;51.166;6.992;2022-11-15T11:08:36;2.25;;;1.85;;
19482;SDS011;9882;51.166;6.992;2022-11-15T11:11:10;3.22;;;1.70;;
19482;SDS011;9882;51.166;6.992;2022-11-15T11:13:51;5.47;;;1.73;;
19482;SDS011;9882;51.166;6.992;2022-11-15T11:16:34;3.83;;;1.90;;
19482;SDS011;9882;51.166;6.992;2022-11-15T11:19:17;3.88;;;1.80;;
19482;SDS011;9882;51.166;6.992;2022-11-15T11:22:00;8.13;;;1.95;;
19482;SDS011;9882;51.166;6.992;2022-11-15T11:24:38;2.75;;;1.95;;
19482;SDS011;9882;51.166;6.992;2022-11-15T11:27:14;4.50;;;2.20;;
19482;SDS011;9882;51.166;6.992;2022-11-15T11:29:58;1.88;;;1.67;;
19482;SDS011;9882;51.166;6.992;2022-11-15T11:32:48;5.15;;;1.77;;
19482;SDS011;9882;51.166;6.992;2022-11-15T11:36:02;2.20;;;1.50;;
19482;SDS011;9882;51.166;6.992;2022-11-15T11:39:17;9.25;;;1.65;;
19482;SDS011;9882;51.166;6.992;2022-11-15T11:41:58;5.45;;;1.58;;
19482;SDS011;9882;51.166;6.992;2022-11-15T11:44:33;4.53;;;1.83;;
19482;SDS011;9882;51.166;6.992;2022-11-15T11:47:14;2.35;;;1.70;;
19482;SDS011;9882;51.166;6.992;2022-11-15T11:50:22;2.33;;;1.77;;
19482;SDS011;9882;51.166;6.992;2022-11-15T11:53:03;1.92;;;1.25;;
19482;SDS011;9882;51.166;6.992;2022-11-15T11:55:37;1.65;;;1.52;;
19482;SDS011;9882;51.166;6.992;2022-11-15T11:58:16;5.35;;;1.80;;
19482;SDS011;9882;51.166;6.992;2022-11-15T12:00:51;6.00;;;1.55;;
19482;SDS011;9882;51.166;6.992;2022-11-15T12:03:25;3.60;;;1.75;;
19482;SDS011;9882;51.166;6.992;2022-11-15T12:06:45;4.63;;;1.90;;
19482;SDS011;9882;51.166;6.992;2022-11-15T12:09:20;5.80;;;1.50;;
19482;SDS011;9882;51.166;6.992;2022-11-15T12:12:00;3.90;;;1.67;;
19482;SDS011;9882;51.166;6.992;2022-11-15T12:17:29;2.78;;;1.65;;
19482;SDS011;9882;51.166;6.992;2022-11-15T12:20:03;5.88;;;1.73;;
19482;SDS011;9882;51.166;6.992;2022-11-15T12:22:37;4.53;;;1.50;;
19482;SDS011;9882;51.166;6.992;2022-11-15T12:25:14;2.05;;;1.30;;
19482;SDS011;9882;51.166;6.992;2022-11-15T12:27:50;2.58;;;1.58;;
19482;SDS011;9882;51.166;6.992;2022-11-15T12:30:57;1.65;;;1.55;;
19482;SDS011;9882;51.166;6.992;2022-11-15T12:33:34;3.17;;;1.60;;
19482;SDS011;9882;51.166;6.992;2022-11-15T12:57:23;1.55;;;1.45;;
19482;SDS011;9882;51.166;6.992;2022-11-15T13:04:35;3.13;;;1.52;;
19482;SDS011;9882;51.166;6.992;2022-11-15T13:50:27;1.45;;;1.35;;
19482;SDS011;9882;51.166;6.992;2022-11-15T13:53:00;2.25;;;1.55;;
19482;SDS011;9882;51.166;6.992;2022-11-15T13:55:31;2.05;;;1.67;;
19482;SDS011;9882;51.166;6.992;2022-11-15T14:00:39;3.00;;;1.73;;
19482;SDS011;9882;51.166;6.992;2022-11-15T14:41:24;4.75;;;2.75;;
19482;SDS011;9882;51.166;6.992;2022-11-15T14:43:53;6.30;;;2.67;;
19482;SDS011;9882;51.166;6.992;2022-11-15T14:46:22;4.20;;;2.60;;
19482;SDS011;9882;51.166;6.992;2022-11-15T14:48:50;5.15;;;2.80;;
19482;SDS011;9882;51.166;6.992;2022-11-15T14:51:19;3.95;;;2.47;;
19482;SDS011;9882;51.166;6.992;2022-11-15T14:53:47;5.82;;;2.70;;
19482;SDS011;9882;51.166;6.992;2022-11-15T14:56:16;3.55;;;2.38;;
19482;SDS011;9882;51.166;6.992;2022-11-15T14:58:46;4.22;;;2.45;;
19482;SDS011;9882;51.166;6.992;2022-11-15T15:01:17;5.55;;;2.60;;
19482;SDS011;9882;51.166;6.992;2022-11-15T15:03:47;3.92;;;2.55;;
19482;SDS011;9882;51.166;6.992;2022-11-15T15:06:18;9.63;;;2.85;;
19482;SDS011;9882;51.166;6.992;2022-11-15T15:08:46;6.43;;;2.80;;
19482;SDS011;9882;51.166;6.992;2022-11-15T15:11:18;5.15;;;2.40;;
19482;SDS011;9882;51.166;6.992;2022-11-15T15:13:51;5.70;;;2.53;;
19482;SDS011;9882;51.166;6.992;2022-11-15T15:16:22;4.07;;;2.58;;
19482;SDS011;9882;51.166;6.992;2022-11-15T15:18:51;3.53;;;2.35;;
19482;SDS011;9882;51.166;6.992;2022-11-15T15:21:20;7.15;;;2.70;;
19482;SDS011;9882;51.166;6.992;2022-11-15T15:23:50;7.55;;;2.95;;
19482;SDS011;9882;51.166;6.992;2022-11-15T15:26:20;4.00;;;2.55;;
19482;SDS011;9882;51.166;6.992;2022-11-15T15:28:51;2.90;;;2.35;;
19482;SDS011;9882;51.166;6.992;2022-11-15T15:31:19;4.75;;;2.58;;
19482;SDS011;9882;51.166;6.992;2022-11-15T15:33:48;5.38;;;2.90;;
19482;SDS011;9882;51.166;6.992;2022-11-15T15:36:17;3.28;;;2.47;;
19482;SDS011;9882;51.166;6.992;2022-11-15T15:38:46;8.48;;;2.60;;
19482;SDS011;9882;51.166;6.992;2022-11-15T15:41:15;4.72;;;2.38;;
19482;SDS011;9882;51.166;6.992;2022-11-15T15:43:44;3.92;;;2.42;;
19482;SDS011;9882;51.166;6.992;2022-11-15T15:46:16;3.55;;;2.50;;
19482;SDS011;9882;51.166;6.992;2022-11-15T15:48:45;7.70;;;2.75;;
19482;SDS011;9882;51.166;6.992;2022-11-15T15:51:14;8.18;;;2.72;;
19482;SDS011;9882;51.166;6.992;2022-11-15T15:53:45;4.55;;;2.60;;
19482;SDS011;9882;51.166;6.992;2022-11-15T15:56:14;6.70;;;2.80;;
19482;SDS011;9882;51.166;6.992;2022-11-15T15:58:42;3.88;;;2.38;;
19482;SDS011;9882;51.166;6.992;2022-11-15T16:01:11;4.90;;;2.47;;
19482;SDS011;9882;51.166;6.992;2022-11-15T16:03:41;3.90;;;2.63;;
19482;SDS011;9882;51.166;6.992;2022-11-15T16:06:25;8.20;;;2.40;;
19482;SDS011;9882;51.166;6.992;2022-11-15T16:09:02;6.20;;;2.53;;
19482;SDS011;9882;51.166;6.992;2022-11-15T16:11:40;4.60;;;2.58;;
19482;SDS011;9882;51.166;6.992;2022-11-15T16:14:09;5.95;;;2.45;;
19482;SDS011;9882;51.166;6.992;2022-11-15T16:16:37;6.15;;;2.88;;
19482;SDS011;9882;51.166;6.992;2022-11-15T16:19:08;3.50;;;2.60;;
19482;SDS011;9882;51.166;6.992;2022-11-15T16:21:38;5.90;;;2.72;;
19482;SDS011;9882;51.166;6.992;2022-11-15T16:24:07;3.25;;;2.13;;
19482;SDS011;9882;51.166;6.992;2022-11-15T16:26:35;4.70;;;2.80;;
19482;SDS011;9882;51.166;6.992;2022-11-15T16:29:05;4.95;;;2.40;;
19482;SDS011;9882;51.166;6.992;2022-11-15T16:31:35;7.75;;;2.63;;
19482;SDS011;9882;51.166;6.992;2022-11-15T16:34:04;5.25;;;2.65;;
19482;SDS011;9882;51.166;6.992;2022-11-15T16:36:34;5.68;;;2.70;;
19482;SDS011;9882;51.166;6.992;2022-11-15T16:39:03;4.30;;;2.40;;
19482;SDS011;9882;51.166;6.992;2022-11-15T16:41:32;7.85;;;2.80;;
19482;SDS011;9882;51.166;6.992;2022-11-15T16:44:00;4.03;;;2.42;;
19482;SDS011;9882;51.166;6.992;2022-11-15T16:46:29;3.50;;;2.47;;
19482;SDS011;9882;51.166;6.992;2022-11-15T16:48:57;11.65;;;2.80;;
19482;SDS011;9882;51.166;6.992;2022-11-15T16:51:26;5.15;;;2.63;;
19482;SDS011;9882;51.166;6.992;2022-11-15T16:53:56;5.05;;;2.50;;
19482;SDS011;9882;51.166;6.992;2022-11-15T16:56:25;7.85;;;2.67;;
19482;SDS011;9882;51.166;6.992;2022-11-15T16:58:54;4.47;;;2.63;;
19482;SDS011;9882;51.166;6.992;2022-11-15T17:01:25;3.92;;;2.40;;
19482;SDS011;9882;51.166;6.992;2022-11-15T17:03:54;6.13;;;2.47;;
19482;SDS011;9882;51.166;6.992;2022-11-15T17:06:24;4.90;;;2.67;;
19482;SDS011;9882;51.166;6.992;2022-11-15T17:08:55;5.20;;;2.50;;
19482;SDS011;9882;51.166;6.992;2022-11-15T17:11:23;7.07;;;2.40;;
19482;SDS011;9882;51.166;6.992;2022-11-15T17:13:56;4.40;;;2.38;;
19482;SDS011;9882;51.166;6.992;2022-11-15T17:16:25;4.75;;;2.70;;
19482;SDS011;9882;51.166;6.992;2022-11-15T17:18:53;5.00;;;2.67;;
19482;SDS011;9882;51.166;6.992;2022-11-15T17:21:22;3.70;;;2.70;;
19482;SDS011;9882;51.166;6.992;2022-11-15T17:23:53;8.50;;;2.65;;
19482;SDS011;9882;51.166;6.992;2022-11-15T17:26:25;6.03;;;2.60;;
19482;SDS011;9882;51.166;6.992;2022-11-15T17:28:56;5.05;;;2.70;;
19482;SDS011;9882;51.166;6.992;2022-11-15T17:31:27;5.30;;;2.47;;
19482;SDS011;9882;51.166;6.992;2022-11-15T17:33:59;3.75;;;2.50;;
19482;SDS011;9882;51.166;6.992;2022-11-15T17:36:28;5.18;;;2.20;;
19482;SDS011;9882;51.166;6.992;2022-11-15T17:38:58;4.90;;;2.70;;
19482;SDS011;9882;51.166;6.992;2022-11-15T17:41:27;4.00;;;2.22;;
19482;SDS011;9882;51.166;6.992;2022-11-15T17:43:56;5.47;;;2.80;;
19482;SDS011;9882;51.166;6.992;2022-11-15T17:46:27;3.92;;;2.53;;
19482;SDS011;9882;51.166;6.992;2022-11-15T17:48:56;3.90;;;2.40;;
19482;SDS011;9882;51.166;6.992;2022-11-15T17:51:25;5.43;;;2.50;;
19482;SDS011;9882;51.166;6.992;2022-11-15T17:53:54;3.67;;;2.28;;
19482;SDS011;9882;51.166;6.992;2022-11-15T17:56:24;4.88;;;2.67;;
19482;SDS011;9882;51.166;6.992;2022-11-15T17:58:54;6.07;;;2.75;;
19482;SDS011;9882;51.166;6.992;2022-11-15T18:01:24;5.00;;;2.63;;
19482;SDS011;9882;51.166;6.992;2022-11-15T18:03:54;3.63;;;2.60;;
19482;SDS011;9882;51.166;6.992;2022-11-15T18:06:23;6.28;;;2.55;;
19482;SDS011;9882;51.166;6.992;2022-11-15T18:08:52;4.22;;;2.80;;
19482;SDS011;9882;51.166;6.992;2022-11-15T18:11:24;3.50;;;2.53;;
19482;SDS011;9882;51.166;6.992;2022-11-15T18:13:54;5.38;;;2.90;;
19482;SDS011;9882;51.166;6.992;2022-11-15T18:16:25;4.82;;;2.65;;
19482;SDS011;9882;51.166;6.992;2022-11-15T18:18:56;4.05;;;2.42;;
19482;SDS011;9882;51.166;6.992;2022-11-15T18:21:26;4.15;;;2.70;;
19482;SDS011;9882;51.166;6.992;2022-11-15T18:23:58;3.22;;;2.55;;
19482;SDS011;9882;51.166;6.992;2022-11-15T18:26:29;4.10;;;2.78;;
19482;SDS011;9882;51.166;6.992;2022-11-15T18:29:01;7.20;;;3.33;;
19482;SDS011;9882;51.166;6.992;2022-11-15T18:31:30;7.38;;;2.88;;
19482;SDS011;9882;51.166;6.992;2022-11-15T18:33:59;5.90;;;3.60;;
19482;SDS011;9882;51.166;6.992;2022-11-15T18:36:29;6.68;;;2.60;;
19482;SDS011;9882;51.166;6.992;2022-11-15T18:38:58;4.32;;;2.92;;
19482;SDS011;9882;51.166;6.992;2022-11-15T18:41:30;5.03;;;2.83;;
19482;SDS011;9882;51.166;6.992;2022-11-15T18:44:00;5.45;;;2.70;;
19482;SDS011;9882;51.166;6.992;2022-11-15T18:46:30;7.15;;;2.83;;
19482;SDS011;9882;51.166;6.992;2022-11-15T18:49:00;9.48;;;3.33;;
19482;SDS011;9882;51.166;6.992;2022-11-15T18:51:29;8.43;;;3.65;;
19482;SDS011;9882;51.166;6.992;2022-11-15T18:53:59;9.50;;;3.58;;
19482;SDS011;9882;51.166;6.992;2022-11-15T18:56:29;13.30;;;3.85;;
19482;SDS011;9882;51.166;6.992;2022-11-15T18:59:00;8.70;;;3.92;;
19482;SDS011;9882;51.166;6.992;2022-11-15T19:01:30;6.55;;;3.28;;
19482;SDS011;9882;51.166;6.992;2022-11-15T19:04:02;7.07;;;3.53;;
19482;SDS011;9882;51.166;6.992;2022-11-15T19:06:35;5.85;;;3.05;;
19482;SDS011;9882;51.166;6.992;2022-11-15T19:09:05;12.85;;;3.88;;
19482;SDS011;9882;51.166;6.992;2022-11-15T19:11:36;9.68;;;3.65;;
19482;SDS011;9882;51.166;6.992;2022-11-15T19:14:07;10.82;;;3.85;;
19482;SDS011;9882;51.166;6.992;2022-11-15T19:16:36;8.13;;;3.80;;
19482;SDS011;9882;51.166;6.992;2022-11-15T19:19:06;11.05;;;4.03;;
19482;SDS011;9882;51.166;6.992;2022-11-15T19:21:38;9.77;;;3.42;;
19482;SDS011;9882;51.166;6.992;2022-11-15T19:24:06;7.70;;;3.70;;
19482;SDS011;9882;51.166;6.992;2022-11-15T19:26:37;5.60;;;3.33;;
19482;SDS011;9882;51.166;6.992;2022-11-15T19:29:07;8.75;;;3.67;;
19482;SDS011;9882;51.166;6.992;2022-11-15T19:31:37;5.40;;;3.38;;
19482;SDS011;9882;51.166;6.992;2022-11-15T19:34:05;8.15;;;3.45;;
19482;SDS011;9882;51.166;6.992;2022-11-15T19:36:35;7.50;;;3.60;;
19482;SDS011;9882;51.166;6.992;2022-11-15T19:39:06;10.38;;;4.00;;
19482;SDS011;9882;51.166;6.992;2022-11-15T19:41:41;8.65;;;3.70;;
19482;SDS011;9882;51.166;6.992;2022-11-15T19:44:11;9.60;;;4.03;;
19482;SDS011;9882;51.166;6.992;2022-11-15T19:46:40;10.80;;;4.22;;
19482;SDS011;9882;51.166;6.992;2022-11-15T19:49:09;10.45;;;3.85;;
19482;SDS011;9882;51.166;6.992;2022-11-15T19:51:38;9.63;;;4.00;;
19482;SDS011;9882;51.166;6.992;2022-11-15T19:54:09;10.23;;;4.07;;
19482;SDS011;9882;51.166;6.992;2022-11-15T19:56:40;12.32;;;4.13;;
19482;SDS011;9882;51.166;6.992;2022-11-15T19:59:09;9.45;;;3.80;;
19482;SDS011;9882;51.166;6.992;2022-11-15T20:01:39;6.75;;;3.67;;
19482;SDS011;9882;51.166;6.992;2022-11-15T20:04:08;9.07;;;4.00;;
19482;SDS011;9882;51.166;6.992;2022-11-15T20:06:39;8.52;;;3.75;;